Gunnarsholt Airport


Codes: BIGH/
Name: Gunnarsholt Airport
City: Gunnarsholt
Country: Iceland
Elevation: 200 ft.

Photos at Gunnarsholt Airport


   Photos courtesy of SpottingLog. You can add your own sightings and photos by signing up for a free trial today.



No photos found.

Weather at Gunnarsholt Airport


Time (UTC)DescriptionTempratureWindCloud coverageVisibilityPressureHumidity
16-Jun-2024 00:00Overcast Clouds12°C2 mph, SE88%10000m1014hPa84%
16-Jun-2024 03:00Overcast Clouds11°C4 mph, S85%10000m1014hPa87%
16-Jun-2024 06:00Overcast Clouds11°C4 mph, S86%10000m1014hPa87%
16-Jun-2024 09:00Overcast Clouds14°C4 mph, W95%10000m1015hPa72%
16-Jun-2024 12:00Broken Clouds19°C7 mph, NW76%10000m1013hPa49%
16-Jun-2024 15:00Scattered Clouds20°C13 mph, NW32%10000m1013hPa45%
16-Jun-2024 18:00Scattered Clouds19°C16 mph, NW35%10000m1013hPa52%
16-Jun-2024 21:00Few Clouds15°C11 mph, W13%10000m1014hPa71%
17-Jun-2024 00:00Clear Sky9°C4 mph, SW10%10000m1015hPa90%
17-Jun-2024 03:00Few Clouds7°C7 mph, S14%10000m1016hPa96%
17-Jun-2024 06:00Broken Clouds9°C7 mph, S54%10000m1016hPa82%
17-Jun-2024 09:00Overcast Clouds9°C9 mph, S100%10000m1018hPa81%
17-Jun-2024 12:00Overcast Clouds9°C9 mph, S100%10000m1019hPa85%
17-Jun-2024 15:00Overcast Clouds10°C9 mph, S100%10000m1020hPa77%
17-Jun-2024 18:00Overcast Clouds8°C9 mph, S100%10000m1021hPa78%
17-Jun-2024 21:00Overcast Clouds8°C9 mph, S100%10000m1021hPa76%
18-Jun-2024 00:00Overcast Clouds7°C7 mph, S100%10000m1021hPa75%
18-Jun-2024 03:00Overcast Clouds7°C7 mph, S100%10000m1020hPa83%
18-Jun-2024 06:00Overcast Clouds8°C4 mph, SW100%10000m1019hPa86%
18-Jun-2024 09:00Overcast Clouds9°C7 mph, SW100%10000m1018hPa73%
18-Jun-2024 12:00Overcast Clouds10°C7 mph, SW100%10000m1016hPa69%
18-Jun-2024 15:00Light Rain8°C4 mph, SE100%10000m1014hPa87%
18-Jun-2024 18:00Light Rain9°C2 mph, NE100%10000m1011hPa88%
18-Jun-2024 21:00Light Rain9°C2 mph, N100%10000m1009hPa90%
19-Jun-2024 00:00Light Rain8°C4 mph, N100%10000m1007hPa93%
19-Jun-2024 03:00Light Rain8°C2 mph, NW100%10000m1006hPa93%
19-Jun-2024 06:00Overcast Clouds8°C2 mph, W100%10000m1007hPa93%
19-Jun-2024 09:00Light Rain8°C4 mph, W100%10000m1008hPa93%
19-Jun-2024 12:00Light Rain9°C2 mph, SW100%10000m1009hPa91%
19-Jun-2024 15:00Light Rain10°C2 mph, NW100%10000m1010hPa86%
19-Jun-2024 18:00Overcast Clouds10°C2 mph, SW100%10000m1010hPa82%
19-Jun-2024 21:00Overcast Clouds10°C2 mph, W98%10000m1010hPa86%
20-Jun-2024 00:00Overcast Clouds8°C2 mph, W95%10000m1011hPa93%
20-Jun-2024 03:00Broken Clouds7°C2 mph, N81%10000m1009hPa94%
20-Jun-2024 06:00Broken Clouds8°C2 mph, NE54%10000m1009hPa84%
20-Jun-2024 09:00Overcast Clouds12°C2 mph, E94%10000m1008hPa63%
20-Jun-2024 12:00Overcast Clouds14°C4 mph, NE98%10000m1007hPa51%
20-Jun-2024 15:00Overcast Clouds14°C2 mph, E99%10000m1006hPa51%
20-Jun-2024 18:00Light Rain12°C4 mph, S100%10000m1006hPa67%
20-Jun-2024 21:00Light Rain10°C4 mph, W96%10000m1006hPa85%